sensor_id;sensor_type;location;lat;lon;timestamp;temperature;humidity
25248;DHT22;13191;47.472;11.214;2024-02-23T00:00:41;9.50;99.90
25248;DHT22;13191;47.472;11.214;2024-02-23T00:03:07;9.50;99.90
25248;DHT22;13191;47.472;11.214;2024-02-23T00:05:33;9.60;99.90
25248;DHT22;13191;47.472;11.214;2024-02-23T00:07:59;9.60;99.90
25248;DHT22;13191;47.472;11.214;2024-02-23T00:10:24;9.40;99.90
25248;DHT22;13191;47.472;11.214;2024-02-23T00:12:51;9.20;99.90
25248;DHT22;13191;47.472;11.214;2024-02-23T00:15:16;8.90;99.90
25248;DHT22;13191;47.472;11.214;2024-02-23T00:17:42;8.90;99.90
25248;DHT22;13191;47.472;11.214;2024-02-23T00:20:09;8.80;99.90
25248;DHT22;13191;47.472;11.214;2024-02-23T00:22:38;8.90;99.90
25248;DHT22;13191;47.472;11.214;2024-02-23T00:25:04;8.80;99.90
25248;DHT22;13191;47.472;11.214;2024-02-23T00:27:29;8.70;99.90
25248;DHT22;13191;47.472;11.214;2024-02-23T00:29:55;8.50;99.90
25248;DHT22;13191;47.472;11.214;2024-02-23T00:32:20;8.40;99.90
25248;DHT22;13191;47.472;11.214;2024-02-23T00:34:46;8.20;99.90
25248;DHT22;13191;47.472;11.214;2024-02-23T00:37:12;8.10;99.90
25248;DHT22;13191;47.472;11.214;2024-02-23T00:39:37;7.90;99.90
25248;DHT22;13191;47.472;11.214;2024-02-23T00:42:03;8.00;99.90
25248;DHT22;13191;47.472;11.214;2024-02-23T00:44:29;8.00;99.90
25248;DHT22;13191;47.472;11.214;2024-02-23T00:46:54;8.10;99.90
25248;DHT22;13191;47.472;11.214;2024-02-23T00:49:20;7.80;99.90
25248;DHT22;13191;47.472;11.214;2024-02-23T00:51:45;7.50;99.90
25248;DHT22;13191;47.472;11.214;2024-02-23T00:54:11;7.50;99.90
25248;DHT22;13191;47.472;11.214;2024-02-23T00:56:36;7.40;99.90
25248;DHT22;13191;47.472;11.214;2024-02-23T00:59:02;7.70;99.90
25248;DHT22;13191;47.472;11.214;2024-02-23T01:01:27;7.80;99.90
25248;DHT22;13191;47.472;11.214;2024-02-23T01:03:54;7.80;99.90
25248;DHT22;13191;47.472;11.214;2024-02-23T01:06:19;7.90;99.90
25248;DHT22;13191;47.472;11.214;2024-02-23T01:08:45;8.00;99.90
25248;DHT22;13191;47.472;11.214;2024-02-23T01:11:10;8.00;99.90
25248;DHT22;13191;47.472;11.214;2024-02-23T01:13:36;8.00;99.90
25248;DHT22;13191;47.472;11.214;2024-02-23T01:16:01;8.10;99.90
25248;DHT22;13191;47.472;11.214;2024-02-23T01:18:27;8.10;99.90
25248;DHT22;13191;47.472;11.214;2024-02-23T01:20:53;8.10;99.90
25248;DHT22;13191;47.472;11.214;2024-02-23T01:23:18;8.10;99.90
25248;DHT22;13191;47.472;11.214;2024-02-23T01:25:44;8.10;99.90
25248;DHT22;13191;47.472;11.214;2024-02-23T01:28:09;8.10;99.90
25248;DHT22;13191;47.472;11.214;2024-02-23T01:30:35;8.10;99.90
25248;DHT22;13191;47.472;11.214;2024-02-23T01:33:00;8.10;99.90
25248;DHT22;13191;47.472;11.214;2024-02-23T01:35:26;8.10;99.90
25248;DHT22;13191;47.472;11.214;2024-02-23T01:37:52;8.00;99.90
25248;DHT22;13191;47.472;11.214;2024-02-23T01:40:18;7.80;99.90
25248;DHT22;13191;47.472;11.214;2024-02-23T01:42:44;7.60;99.90
25248;DHT22;13191;47.472;11.214;2024-02-23T01:45:10;7.60;99.90
25248;DHT22;13191;47.472;11.214;2024-02-23T01:47:35;7.70;99.90
25248;DHT22;13191;47.472;11.214;2024-02-23T01:50:01;7.80;99.90
25248;DHT22;13191;47.472;11.214;2024-02-23T01:52:27;7.80;99.90
25248;DHT22;13191;47.472;11.214;2024-02-23T01:54:54;7.50;99.90
25248;DHT22;13191;47.472;11.214;2024-02-23T01:57:21;7.50;99.90
25248;DHT22;13191;47.472;11.214;2024-02-23T01:59:47;7.60;99.90
25248;DHT22;13191;47.472;11.214;2024-02-23T02:02:13;7.60;99.90
25248;DHT22;13191;47.472;11.214;2024-02-23T02:04:39;7.70;99.90
25248;DHT22;13191;47.472;11.214;2024-02-23T02:07:04;7.70;99.90
25248;DHT22;13191;47.472;11.214;2024-02-23T02:09:30;7.70;99.90
25248;DHT22;13191;47.472;11.214;2024-02-23T02:11:56;7.70;99.90
25248;DHT22;13191;47.472;11.214;2024-02-23T02:14:22;7.70;99.90
25248;DHT22;13191;47.472;11.214;2024-02-23T02:16:47;7.70;99.90
25248;DHT22;13191;47.472;11.214;2024-02-23T02:19:14;7.70;99.90
25248;DHT22;13191;47.472;11.214;2024-02-23T02:21:40;7.70;99.90
25248;DHT22;13191;47.472;11.214;2024-02-23T02:24:06;7.70;99.90
25248;DHT22;13191;47.472;11.214;2024-02-23T02:26:32;7.70;99.90
25248;DHT22;13191;47.472;11.214;2024-02-23T02:28:58;7.70;99.90
25248;DHT22;13191;47.472;11.214;2024-02-23T02:31:23;7.70;99.90
25248;DHT22;13191;47.472;11.214;2024-02-23T02:33:49;7.70;99.90
25248;DHT22;13191;47.472;11.214;2024-02-23T02:36:14;7.60;99.90
25248;DHT22;13191;47.472;11.214;2024-02-23T02:38:40;7.70;99.90
25248;DHT22;13191;47.472;11.214;2024-02-23T02:41:06;7.60;99.90
25248;DHT22;13191;47.472;11.214;2024-02-23T02:43:32;7.60;99.90
25248;DHT22;13191;47.472;11.214;2024-02-23T02:45:57;7.60;99.90
25248;DHT22;13191;47.472;11.214;2024-02-23T02:48:23;7.60;99.90
25248;DHT22;13191;47.472;11.214;2024-02-23T02:50:50;7.60;99.90
25248;DHT22;13191;47.472;11.214;2024-02-23T02:53:16;7.60;99.90
25248;DHT22;13191;47.472;11.214;2024-02-23T02:55:42;7.60;99.90
25248;DHT22;13191;47.472;11.214;2024-02-23T02:58:08;7.60;99.90
25248;DHT22;13191;47.472;11.214;2024-02-23T03:00:34;7.50;99.90
25248;DHT22;13191;47.472;11.214;2024-02-23T03:03:00;7.40;99.90
25248;DHT22;13191;47.472;11.214;2024-02-23T03:05:25;7.20;99.90
25248;DHT22;13191;47.472;11.214;2024-02-23T03:07:51;7.30;99.90
25248;DHT22;13191;47.472;11.214;2024-02-23T03:10:16;7.30;99.90
25248;DHT22;13191;47.472;11.214;2024-02-23T03:12:42;7.30;99.90
25248;DHT22;13191;47.472;11.214;2024-02-23T03:15:08;7.30;99.90
25248;DHT22;13191;47.472;11.214;2024-02-23T03:17:35;7.30;99.90
25248;DHT22;13191;47.472;11.214;2024-02-23T03:20:01;7.20;99.90
25248;DHT22;13191;47.472;11.214;2024-02-23T03:22:27;7.10;99.90
25248;DHT22;13191;47.472;11.214;2024-02-23T03:24:52;7.10;99.90
25248;DHT22;13191;47.472;11.214;2024-02-23T03:27:18;7.00;99.90
25248;DHT22;13191;47.472;11.214;2024-02-23T03:29:44;7.10;99.90
25248;DHT22;13191;47.472;11.214;2024-02-23T03:32:09;7.10;99.90
25248;DHT22;13191;47.472;11.214;2024-02-23T03:34:35;7.10;99.90
25248;DHT22;13191;47.472;11.214;2024-02-23T03:37:02;7.10;99.90
25248;DHT22;13191;47.472;11.214;2024-02-23T03:39:28;7.10;99.90
25248;DHT22;13191;47.472;11.214;2024-02-23T03:41:54;7.10;99.90
25248;DHT22;13191;47.472;11.214;2024-02-23T03:44:19;7.10;99.90
25248;DHT22;13191;47.472;11.214;2024-02-23T03:46:45;7.10;99.90
25248;DHT22;13191;47.472;11.214;2024-02-23T03:49:10;7.10;99.90
25248;DHT22;13191;47.472;11.214;2024-02-23T03:51:37;7.10;99.90
25248;DHT22;13191;47.472;11.214;2024-02-23T03:54:05;7.10;99.90
25248;DHT22;13191;47.472;11.214;2024-02-23T03:56:38;7.10;99.90
25248;DHT22;13191;47.472;11.214;2024-02-23T03:59:04;7.00;99.90
25248;DHT22;13191;47.472;11.214;2024-02-23T04:01:30;7.10;99.90
25248;DHT22;13191;47.472;11.214;2024-02-23T04:03:55;7.10;99.90
25248;DHT22;13191;47.472;11.214;2024-02-23T04:06:21;7.00;99.90
25248;DHT22;13191;47.472;11.214;2024-02-23T04:08:46;7.10;99.90
25248;DHT22;13191;47.472;11.214;2024-02-23T04:11:13;7.00;99.90
25248;DHT22;13191;47.472;11.214;2024-02-23T04:13:38;7.00;99.90
25248;DHT22;13191;47.472;11.214;2024-02-23T04:16:04;7.00;99.90
25248;DHT22;13191;47.472;11.214;2024-02-23T04:18:29;7.00;99.90
25248;DHT22;13191;47.472;11.214;2024-02-23T04:20:55;7.00;99.90
25248;DHT22;13191;47.472;11.214;2024-02-23T04:23:20;7.00;99.90
25248;DHT22;13191;47.472;11.214;2024-02-23T04:25:46;7.00;99.90
25248;DHT22;13191;47.472;11.214;2024-02-23T04:28:11;7.00;99.90
25248;DHT22;13191;47.472;11.214;2024-02-23T04:30:37;6.90;99.90
25248;DHT22;13191;47.472;11.214;2024-02-23T04:33:02;6.90;99.90
25248;DHT22;13191;47.472;11.214;2024-02-23T04:35:28;6.90;99.90
25248;DHT22;13191;47.472;11.214;2024-02-23T04:37:53;6.90;99.90
25248;DHT22;13191;47.472;11.214;2024-02-23T04:40:19;6.90;99.90
25248;DHT22;13191;47.472;11.214;2024-02-23T04:42:44;6.80;99.90
25248;DHT22;13191;47.472;11.214;2024-02-23T04:45:11;6.80;99.90
25248;DHT22;13191;47.472;11.214;2024-02-23T04:47:36;6.80;99.90
25248;DHT22;13191;47.472;11.214;2024-02-23T04:50:02;6.80;99.90
25248;DHT22;13191;47.472;11.214;2024-02-23T04:52:28;6.70;99.90
25248;DHT22;13191;47.472;11.214;2024-02-23T04:54:54;6.70;99.90
25248;DHT22;13191;47.472;11.214;2024-02-23T04:57:20;6.70;99.90
25248;DHT22;13191;47.472;11.214;2024-02-23T04:59:45;6.60;99.90
25248;DHT22;13191;47.472;11.214;2024-02-23T05:02:11;6.60;99.90
25248;DHT22;13191;47.472;11.214;2024-02-23T05:04:36;6.60;99.90
25248;DHT22;13191;47.472;11.214;2024-02-23T05:07:02;6.60;99.90
25248;DHT22;13191;47.472;11.214;2024-02-23T05:09:28;6.50;99.90
25248;DHT22;13191;47.472;11.214;2024-02-23T05:11:53;6.60;99.90
25248;DHT22;13191;47.472;11.214;2024-02-23T05:14:19;6.60;99.90
25248;DHT22;13191;47.472;11.214;2024-02-23T05:16:44;6.60;99.90
25248;DHT22;13191;47.472;11.214;2024-02-23T05:19:10;6.60;99.90
25248;DHT22;13191;47.472;11.214;2024-02-23T05:21:35;6.60;99.90
25248;DHT22;13191;47.472;11.214;2024-02-23T05:24:00;6.50;99.90
25248;DHT22;13191;47.472;11.214;2024-02-23T05:26:26;6.50;99.90
25248;DHT22;13191;47.472;11.214;2024-02-23T05:28:51;6.50;99.90
25248;DHT22;13191;47.472;11.214;2024-02-23T05:31:18;6.50;99.90
25248;DHT22;13191;47.472;11.214;2024-02-23T05:33:43;6.50;99.90
25248;DHT22;13191;47.472;11.214;2024-02-23T05:36:09;6.50;99.90
25248;DHT22;13191;47.472;11.214;2024-02-23T05:38:34;6.40;99.90
25248;DHT22;13191;47.472;11.214;2024-02-23T05:41:00;6.40;99.90
25248;DHT22;13191;47.472;11.214;2024-02-23T05:43:26;6.40;99.90
25248;DHT22;13191;47.472;11.214;2024-02-23T05:45:51;6.40;99.90
25248;DHT22;13191;47.472;11.214;2024-02-23T05:48:17;6.40;99.90
25248;DHT22;13191;47.472;11.214;2024-02-23T05:50:44;6.40;99.90
25248;DHT22;13191;47.472;11.214;2024-02-23T05:53:09;6.40;99.90
25248;DHT22;13191;47.472;11.214;2024-02-23T05:55:35;6.40;99.90
25248;DHT22;13191;47.472;11.214;2024-02-23T05:58:01;6.30;99.90
25248;DHT22;13191;47.472;11.214;2024-02-23T06:00:26;6.30;99.90
25248;DHT22;13191;47.472;11.214;2024-02-23T06:02:51;6.20;99.90
25248;DHT22;13191;47.472;11.214;2024-02-23T06:05:17;6.20;99.90
25248;DHT22;13191;47.472;11.214;2024-02-23T06:07:42;6.30;99.90
25248;DHT22;13191;47.472;11.214;2024-02-23T06:10:08;6.20;99.90
25248;DHT22;13191;47.472;11.214;2024-02-23T06:12:34;6.30;99.90
25248;DHT22;13191;47.472;11.214;2024-02-23T06:14:59;6.30;99.90
25248;DHT22;13191;47.472;11.214;2024-02-23T06:17:25;6.30;99.90
25248;DHT22;13191;47.472;11.214;2024-02-23T06:19:50;6.20;99.90
25248;DHT22;13191;47.472;11.214;2024-02-23T06:22:18;6.30;99.90
25248;DHT22;13191;47.472;11.214;2024-02-23T06:24:47;6.30;99.90
25248;DHT22;13191;47.472;11.214;2024-02-23T06:27:12;6.30;99.90
25248;DHT22;13191;47.472;11.214;2024-02-23T06:29:38;6.20;99.90
25248;DHT22;13191;47.472;11.214;2024-02-23T06:32:04;6.20;99.90
25248;DHT22;13191;47.472;11.214;2024-02-23T06:34:29;6.20;99.90
25248;DHT22;13191;47.472;11.214;2024-02-23T06:36:55;6.20;99.90
25248;DHT22;13191;47.472;11.214;2024-02-23T06:39:21;6.20;99.90
25248;DHT22;13191;47.472;11.214;2024-02-23T06:41:46;6.10;99.90
25248;DHT22;13191;47.472;11.214;2024-02-23T06:44:11;6.10;99.90
25248;DHT22;13191;47.472;11.214;2024-02-23T06:46:37;6.10;99.90
25248;DHT22;13191;47.472;11.214;2024-02-23T06:49:03;6.10;99.90
25248;DHT22;13191;47.472;11.214;2024-02-23T06:51:31;6.10;99.90
25248;DHT22;13191;47.472;11.214;2024-02-23T06:53:56;6.10;99.90
25248;DHT22;13191;47.472;11.214;2024-02-23T06:56:22;6.00;99.90
25248;DHT22;13191;47.472;11.214;2024-02-23T06:58:47;6.00;99.90
25248;DHT22;13191;47.472;11.214;2024-02-23T07:01:13;6.00;99.90
25248;DHT22;13191;47.472;11.214;2024-02-23T07:03:38;6.00;99.90
25248;DHT22;13191;47.472;11.214;2024-02-23T07:06:05;6.00;99.90
25248;DHT22;13191;47.472;11.214;2024-02-23T07:08:31;6.00;99.90
25248;DHT22;13191;47.472;11.214;2024-02-23T07:10:56;6.00;99.90
25248;DHT22;13191;47.472;11.214;2024-02-23T07:13:22;6.00;99.90
25248;DHT22;13191;47.472;11.214;2024-02-23T07:15:47;5.90;99.90
25248;DHT22;13191;47.472;11.214;2024-02-23T07:18:13;5.80;99.90
25248;DHT22;13191;47.472;11.214;2024-02-23T07:20:39;5.80;99.90
25248;DHT22;13191;47.472;11.214;2024-02-23T07:23:04;5.80;99.90
25248;DHT22;13191;47.472;11.214;2024-02-23T07:25:30;5.80;99.90
25248;DHT22;13191;47.472;11.214;2024-02-23T07:27:56;5.80;99.90
25248;DHT22;13191;47.472;11.214;2024-02-23T07:30:21;5.80;99.90
25248;DHT22;13191;47.472;11.214;2024-02-23T07:32:47;5.80;99.90
25248;DHT22;13191;47.472;11.214;2024-02-23T07:35:12;5.70;99.90
25248;DHT22;13191;47.472;11.214;2024-02-23T07:37:38;5.70;99.90
25248;DHT22;13191;47.472;11.214;2024-02-23T07:40:04;5.70;99.90
25248;DHT22;13191;47.472;11.214;2024-02-23T07:42:31;5.70;99.90
25248;DHT22;13191;47.472;11.214;2024-02-23T07:44:57;5.70;99.90
25248;DHT22;13191;47.472;11.214;2024-02-23T07:47:22;5.60;99.90
25248;DHT22;13191;47.472;11.214;2024-02-23T07:49:48;5.60;99.90
25248;DHT22;13191;47.472;11.214;2024-02-23T07:52:13;5.70;99.90
25248;DHT22;13191;47.472;11.214;2024-02-23T07:54:39;5.70;99.90
25248;DHT22;13191;47.472;11.214;2024-02-23T07:57:04;5.70;99.90
25248;DHT22;13191;47.472;11.214;2024-02-23T07:59:30;5.70;99.90
25248;DHT22;13191;47.472;11.214;2024-02-23T08:01:55;5.70;99.90
25248;DHT22;13191;47.472;11.214;2024-02-23T08:04:21;5.70;99.90
25248;DHT22;13191;47.472;11.214;2024-02-23T08:06:48;5.70;99.90
25248;DHT22;13191;47.472;11.214;2024-02-23T08:09:14;5.60;99.90
25248;DHT22;13191;47.472;11.214;2024-02-23T08:11:39;5.70;99.90
25248;DHT22;13191;47.472;11.214;2024-02-23T08:14:05;5.70;99.90
25248;DHT22;13191;47.472;11.214;2024-02-23T08:16:30;5.70;99.90
25248;DHT22;13191;47.472;11.214;2024-02-23T08:18:56;5.70;99.90
25248;DHT22;13191;47.472;11.214;2024-02-23T08:21:21;5.80;99.90
25248;DHT22;13191;47.472;11.214;2024-02-23T08:23:47;5.80;99.90
25248;DHT22;13191;47.472;11.214;2024-02-23T08:26:12;5.70;99.90
25248;DHT22;13191;47.472;11.214;2024-02-23T08:28:38;5.80;99.90
25248;DHT22;13191;47.472;11.214;2024-02-23T08:31:03;5.70;99.90
25248;DHT22;13191;47.472;11.214;2024-02-23T08:33:30;5.80;99.90
25248;DHT22;13191;47.472;11.214;2024-02-23T08:35:55;5.80;99.90
25248;DHT22;13191;47.472;11.214;2024-02-23T08:38:21;5.80;99.90
25248;DHT22;13191;47.472;11.214;2024-02-23T08:40:46;5.70;99.90
25248;DHT22;13191;47.472;11.214;2024-02-23T08:43:13;5.80;99.90
25248;DHT22;13191;47.472;11.214;2024-02-23T08:45:39;5.80;99.90
25248;DHT22;13191;47.472;11.214;2024-02-23T08:48:04;5.80;99.90
25248;DHT22;13191;47.472;11.214;2024-02-23T08:50:30;5.80;99.90
25248;DHT22;13191;47.472;11.214;2024-02-23T08:52:56;5.80;99.90
25248;DHT22;13191;47.472;11.214;2024-02-23T08:55:21;5.90;99.90
25248;DHT22;13191;47.472;11.214;2024-02-23T08:57:47;5.90;99.90
25248;DHT22;13191;47.472;11.214;2024-02-23T09:00:13;5.90;99.90
25248;DHT22;13191;47.472;11.214;2024-02-23T09:02:40;5.90;99.90
25248;DHT22;13191;47.472;11.214;2024-02-23T09:05:08;5.90;99.90
25248;DHT22;13191;47.472;11.214;2024-02-23T09:07:34;5.90;99.90
25248;DHT22;13191;47.472;11.214;2024-02-23T09:09:59;6.00;99.90
25248;DHT22;13191;47.472;11.214;2024-02-23T09:12:25;6.00;99.90
25248;DHT22;13191;47.472;11.214;2024-02-23T09:14:51;6.00;99.90
25248;DHT22;13191;47.472;11.214;2024-02-23T09:17:17;6.00;99.90
25248;DHT22;13191;47.472;11.214;2024-02-23T09:19:44;6.00;99.90
25248;DHT22;13191;47.472;11.214;2024-02-23T09:22:09;6.10;99.90
25248;DHT22;13191;47.472;11.214;2024-02-23T09:24:35;6.00;99.90
25248;DHT22;13191;47.472;11.214;2024-02-23T09:27:00;6.00;99.90
25248;DHT22;13191;47.472;11.214;2024-02-23T09:29:26;6.10;99.90
25248;DHT22;13191;47.472;11.214;2024-02-23T09:31:51;6.00;99.90
25248;DHT22;13191;47.472;11.214;2024-02-23T09:34:18;6.00;99.90
25248;DHT22;13191;47.472;11.214;2024-02-23T09:36:43;6.00;99.90
25248;DHT22;13191;47.472;11.214;2024-02-23T09:39:09;6.00;99.90
25248;DHT22;13191;47.472;11.214;2024-02-23T09:41:35;5.90;99.90
25248;DHT22;13191;47.472;11.214;2024-02-23T09:44:02;6.00;99.90
25248;DHT22;13191;47.472;11.214;2024-02-23T09:46:29;6.00;99.90
25248;DHT22;13191;47.472;11.214;2024-02-23T09:48:55;6.00;99.90
25248;DHT22;13191;47.472;11.214;2024-02-23T09:51:22;6.00;99.90
25248;DHT22;13191;47.472;11.214;2024-02-23T09:53:49;6.00;99.90
25248;DHT22;13191;47.472;11.214;2024-02-23T09:56:17;6.00;99.90
25248;DHT22;13191;47.472;11.214;2024-02-23T09:58:44;6.00;99.90
25248;DHT22;13191;47.472;11.214;2024-02-23T10:01:10;5.80;99.90
25248;DHT22;13191;47.472;11.214;2024-02-23T10:03:37;5.90;99.90
25248;DHT22;13191;47.472;11.214;2024-02-23T10:06:04;5.90;99.90
25248;DHT22;13191;47.472;11.214;2024-02-23T10:08:30;5.90;99.90
25248;DHT22;13191;47.472;11.214;2024-02-23T10:10:56;5.90;99.90
25248;DHT22;13191;47.472;11.214;2024-02-23T10:13:23;6.00;99.90
25248;DHT22;13191;47.472;11.214;2024-02-23T10:15:52;6.00;99.90
25248;DHT22;13191;47.472;11.214;2024-02-23T10:18:19;5.90;99.90
25248;DHT22;13191;47.472;11.214;2024-02-23T10:20:45;6.00;99.90
25248;DHT22;13191;47.472;11.214;2024-02-23T10:23:11;5.90;99.90
25248;DHT22;13191;47.472;11.214;2024-02-23T10:25:37;5.90;99.90
25248;DHT22;13191;47.472;11.214;2024-02-23T10:28:06;5.90;99.90
25248;DHT22;13191;47.472;11.214;2024-02-23T10:30:32;5.90;99.90
25248;DHT22;13191;47.472;11.214;2024-02-23T10:32:58;6.00;99.90
25248;DHT22;13191;47.472;11.214;2024-02-23T10:35:25;6.00;99.90
25248;DHT22;13191;47.472;11.214;2024-02-23T10:37:51;6.00;99.90
25248;DHT22;13191;47.472;11.214;2024-02-23T10:40:19;6.10;99.90
25248;DHT22;13191;47.472;11.214;2024-02-23T10:42:46;6.10;99.90
25248;DHT22;13191;47.472;11.214;2024-02-23T10:45:18;6.00;99.90
25248;DHT22;13191;47.472;11.214;2024-02-23T10:47:44;6.00;99.90
25248;DHT22;13191;47.472;11.214;2024-02-23T10:50:10;6.00;99.90
25248;DHT22;13191;47.472;11.214;2024-02-23T10:52:40;6.00;99.90
25248;DHT22;13191;47.472;11.214;2024-02-23T10:55:09;6.00;99.90
25248;DHT22;13191;47.472;11.214;2024-02-23T10:57:35;6.00;99.90
25248;DHT22;13191;47.472;11.214;2024-02-23T11:00:04;6.00;99.90
25248;DHT22;13191;47.472;11.214;2024-02-23T11:02:34;5.90;99.90
25248;DHT22;13191;47.472;11.214;2024-02-23T11:05:02;5.90;99.90
25248;DHT22;13191;47.472;11.214;2024-02-23T11:07:30;5.90;99.90
25248;DHT22;13191;47.472;11.214;2024-02-23T11:09:59;5.90;99.90
25248;DHT22;13191;47.472;11.214;2024-02-23T11:12:30;5.90;99.90
25248;DHT22;13191;47.472;11.214;2024-02-23T11:14:59;5.90;99.90
25248;DHT22;13191;47.472;11.214;2024-02-23T11:17:30;5.90;99.90
25248;DHT22;13191;47.472;11.214;2024-02-23T11:19:56;5.90;99.90
25248;DHT22;13191;47.472;11.214;2024-02-23T11:22:26;5.90;99.90
25248;DHT22;13191;47.472;11.214;2024-02-23T11:24:52;5.90;99.90
25248;DHT22;13191;47.472;11.214;2024-02-23T11:27:17;5.90;99.90
25248;DHT22;13191;47.472;11.214;2024-02-23T11:29:46;5.90;99.90
25248;DHT22;13191;47.472;11.214;2024-02-23T11:32:15;5.90;99.90
25248;DHT22;13191;47.472;11.214;2024-02-23T11:34:41;5.90;99.90
25248;DHT22;13191;47.472;11.214;2024-02-23T11:37:10;5.80;99.90
25248;DHT22;13191;47.472;11.214;2024-02-23T11:39:39;5.80;99.90
25248;DHT22;13191;47.472;11.214;2024-02-23T11:42:08;5.80;99.90
25248;DHT22;13191;47.472;11.214;2024-02-23T11:44:34;5.80;99.90
25248;DHT22;13191;47.472;11.214;2024-02-23T11:46:59;5.70;99.90
25248;DHT22;13191;47.472;11.214;2024-02-23T11:49:29;5.70;99.90
25248;DHT22;13191;47.472;11.214;2024-02-23T11:51:55;5.70;99.90
25248;DHT22;13191;47.472;11.214;2024-02-23T11:54:22;5.70;99.90
25248;DHT22;13191;47.472;11.214;2024-02-23T11:56:48;5.80;99.90
25248;DHT22;13191;47.472;11.214;2024-02-23T11:59:15;5.80;99.90
25248;DHT22;13191;47.472;11.214;2024-02-23T12:01:41;5.80;99.90
25248;DHT22;13191;47.472;11.214;2024-02-23T12:04:07;5.80;99.90
25248;DHT22;13191;47.472;11.214;2024-02-23T12:06:33;5.80;99.90
25248;DHT22;13191;47.472;11.214;2024-02-23T12:08:59;5.80;99.90
25248;DHT22;13191;47.472;11.214;2024-02-23T12:11:25;5.80;99.90
25248;DHT22;13191;47.472;11.214;2024-02-23T12:13:51;5.80;99.90
25248;DHT22;13191;47.472;11.214;2024-02-23T12:16:16;5.90;99.90
25248;DHT22;13191;47.472;11.214;2024-02-23T12:18:42;5.90;99.90
25248;DHT22;13191;47.472;11.214;2024-02-23T12:21:08;5.90;99.90
25248;DHT22;13191;47.472;11.214;2024-02-23T12:23:41;5.90;99.90
25248;DHT22;13191;47.472;11.214;2024-02-23T12:26:06;5.90;99.90
25248;DHT22;13191;47.472;11.214;2024-02-23T12:28:33;5.90;99.90
25248;DHT22;13191;47.472;11.214;2024-02-23T12:31:03;5.90;99.90
25248;DHT22;13191;47.472;11.214;2024-02-23T12:33:29;5.90;99.90
25248;DHT22;13191;47.472;11.214;2024-02-23T12:35:56;5.80;99.90
25248;DHT22;13191;47.472;11.214;2024-02-23T12:38:23;5.80;99.90
25248;DHT22;13191;47.472;11.214;2024-02-23T12:40:48;5.90;99.90
25248;DHT22;13191;47.472;11.214;2024-02-23T12:43:14;5.80;99.90
25248;DHT22;13191;47.472;11.214;2024-02-23T12:45:39;5.80;99.90
25248;DHT22;13191;47.472;11.214;2024-02-23T12:48:06;5.80;99.90
25248;DHT22;13191;47.472;11.214;2024-02-23T12:50:31;5.80;99.90
25248;DHT22;13191;47.472;11.214;2024-02-23T12:52:57;5.80;99.90
25248;DHT22;13191;47.472;11.214;2024-02-23T12:55:23;5.80;99.90
25248;DHT22;13191;47.472;11.214;2024-02-23T12:57:48;5.80;99.90
25248;DHT22;13191;47.472;11.214;2024-02-23T13:00:14;5.80;99.90
25248;DHT22;13191;47.472;11.214;2024-02-23T13:02:40;5.70;99.90
25248;DHT22;13191;47.472;11.214;2024-02-23T13:05:06;5.80;99.90
25248;DHT22;13191;47.472;11.214;2024-02-23T13:07:32;5.70;99.90
25248;DHT22;13191;47.472;11.214;2024-02-23T13:09:57;5.70;99.90
25248;DHT22;13191;47.472;11.214;2024-02-23T13:12:23;5.60;99.90
25248;DHT22;13191;47.472;11.214;2024-02-23T13:14:51;5.60;99.90
25248;DHT22;13191;47.472;11.214;2024-02-23T13:17:16;5.70;99.90
25248;DHT22;13191;47.472;11.214;2024-02-23T13:19:42;5.60;99.90
25248;DHT22;13191;47.472;11.214;2024-02-23T13:22:08;5.70;99.90
25248;DHT22;13191;47.472;11.214;2024-02-23T13:24:34;5.70;99.90
25248;DHT22;13191;47.472;11.214;2024-02-23T13:27:00;5.70;99.90
25248;DHT22;13191;47.472;11.214;2024-02-23T13:29:28;5.80;99.90
25248;DHT22;13191;47.472;11.214;2024-02-23T13:31:54;5.80;99.90
25248;DHT22;13191;47.472;11.214;2024-02-23T13:34:19;5.80;99.90
25248;DHT22;13191;47.472;11.214;2024-02-23T13:36:45;5.90;99.90
25248;DHT22;13191;47.472;11.214;2024-02-23T13:39:10;5.90;99.90
25248;DHT22;13191;47.472;11.214;2024-02-23T13:41:36;5.90;99.90
25248;DHT22;13191;47.472;11.214;2024-02-23T13:44:01;5.90;99.90
25248;DHT22;13191;47.472;11.214;2024-02-23T13:46:27;6.00;99.90
25248;DHT22;13191;47.472;11.214;2024-02-23T13:49:03;6.00;99.90
25248;DHT22;13191;47.472;11.214;2024-02-23T13:51:30;6.00;99.90
25248;DHT22;13191;47.472;11.214;2024-02-23T13:53:55;6.00;99.90
25248;DHT22;13191;47.472;11.214;2024-02-23T13:56:21;6.00;99.90
25248;DHT22;13191;47.472;11.214;2024-02-23T13:58:46;6.00;99.90
25248;DHT22;13191;47.472;11.214;2024-02-23T14:01:13;6.00;99.90
25248;DHT22;13191;47.472;11.214;2024-02-23T14:03:39;6.00;99.90
25248;DHT22;13191;47.472;11.214;2024-02-23T14:06:04;6.00;99.90
25248;DHT22;13191;47.472;11.214;2024-02-23T14:08:30;6.00;99.90
25248;DHT22;13191;47.472;11.214;2024-02-23T14:10:56;6.00;99.90
25248;DHT22;13191;47.472;11.214;2024-02-23T14:13:22;6.10;99.90
25248;DHT22;13191;47.472;11.214;2024-02-23T14:15:48;6.10;99.90
25248;DHT22;13191;47.472;11.214;2024-02-23T14:18:14;6.10;99.90
25248;DHT22;13191;47.472;11.214;2024-02-23T14:20:39;6.00;99.90
25248;DHT22;13191;47.472;11.214;2024-02-23T14:23:05;6.10;99.90
25248;DHT22;13191;47.472;11.214;2024-02-23T14:25:31;6.10;99.90
25248;DHT22;13191;47.472;11.214;2024-02-23T14:27:56;6.10;99.90
25248;DHT22;13191;47.472;11.214;2024-02-23T14:30:22;6.10;99.90
25248;DHT22;13191;47.472;11.214;2024-02-23T14:32:47;6.00;99.90
25248;DHT22;13191;47.472;11.214;2024-02-23T14:35:13;6.00;99.90
25248;DHT22;13191;47.472;11.214;2024-02-23T14:37:38;6.00;99.90
25248;DHT22;13191;47.472;11.214;2024-02-23T14:40:04;6.00;99.90
25248;DHT22;13191;47.472;11.214;2024-02-23T14:42:30;6.00;99.90
25248;DHT22;13191;47.472;11.214;2024-02-23T14:44:56;6.00;99.90
25248;DHT22;13191;47.472;11.214;2024-02-23T14:47:21;6.10;99.90
25248;DHT22;13191;47.472;11.214;2024-02-23T14:49:47;6.10;99.90
25248;DHT22;13191;47.472;11.214;2024-02-23T14:52:15;6.10;99.90
25248;DHT22;13191;47.472;11.214;2024-02-23T14:54:40;6.10;99.90
25248;DHT22;13191;47.472;11.214;2024-02-23T14:57:06;6.10;99.90
25248;DHT22;13191;47.472;11.214;2024-02-23T14:59:33;6.10;99.90
25248;DHT22;13191;47.472;11.214;2024-02-23T15:02:01;6.10;99.90
25248;DHT22;13191;47.472;11.214;2024-02-23T15:04:27;6.00;99.90
25248;DHT22;13191;47.472;11.214;2024-02-23T15:06:52;6.00;99.90
25248;DHT22;13191;47.472;11.214;2024-02-23T15:09:18;6.00;99.90
25248;DHT22;13191;47.472;11.214;2024-02-23T15:11:43;6.00;99.90
25248;DHT22;13191;47.472;11.214;2024-02-23T15:14:09;6.00;99.90
25248;DHT22;13191;47.472;11.214;2024-02-23T15:16:35;6.00;99.90
25248;DHT22;13191;47.472;11.214;2024-02-23T15:19:01;6.00;99.90
25248;DHT22;13191;47.472;11.214;2024-02-23T15:21:27;6.00;99.90